createdAt,value
2022-11-28T00:02:19.896Z,6.41
2022-11-28T00:04:51.852Z,6.74
2022-11-28T00:07:20.267Z,7.22
2022-11-28T00:09:47.661Z,6.66
2022-11-28T00:12:18.860Z,6.25
2022-11-28T00:14:47.315Z,7.14
2022-11-28T00:17:14.151Z,6.50
2022-11-28T00:19:40.993Z,7.08
2022-11-28T00:22:08.011Z,7.00
2022-11-28T00:24:34.810Z,6.59
2022-11-28T00:27:04.359Z,6.72
2022-11-28T00:29:33.030Z,6.69
2022-11-28T00:32:01.210Z,6.35
2022-11-28T00:34:29.193Z,7.09
2022-11-28T00:36:57.146Z,6.85
2022-11-28T00:39:24.377Z,6.84
2022-11-28T00:41:54.632Z,6.48
2022-11-28T00:44:21.751Z,6.80
2022-11-28T00:46:52.784Z,6.50
2022-11-28T00:49:20.048Z,5.54
2022-11-28T00:51:48.338Z,5.86
2022-11-28T00:54:17.315Z,5.44
2022-11-28T00:56:45.190Z,5.26
2022-11-28T00:59:11.883Z,4.90
2022-11-28T01:01:43.551Z,4.94
2022-11-28T01:04:14.207Z,4.52
2022-11-28T01:06:43.384Z,4.46
2022-11-28T01:09:12.928Z,4.74
2022-11-28T01:11:40.651Z,4.87
2022-11-28T01:14:10.162Z,5.03
2022-11-28T01:16:38.828Z,5.01
2022-11-28T01:19:06.029Z,5.44
2022-11-28T01:21:40.434Z,5.36
2022-11-28T01:24:08.730Z,6.34
2022-11-28T01:26:39.653Z,6.08
2022-11-28T01:29:06.892Z,7.11
2022-11-28T01:31:33.915Z,8.32
2022-11-28T01:34:02.139Z,8.03
2022-11-28T01:36:29.866Z,6.97
2022-11-28T01:38:58.374Z,6.85
2022-11-28T01:41:30.222Z,6.30
2022-11-28T01:43:59.527Z,6.22
2022-11-28T01:46:27.241Z,6.32
2022-11-28T01:48:59.569Z,6.44
2022-11-28T01:51:27.548Z,6.30
2022-11-28T01:53:55.566Z,5.91
2022-11-28T01:56:31.625Z,5.74
2022-11-28T01:59:04.918Z,5.68
2022-11-28T02:01:32.319Z,5.64
2022-11-28T02:03:59.958Z,5.93
2022-11-28T02:06:29.266Z,6.41
2022-11-28T02:08:57.606Z,6.15
2022-11-28T02:12:02.233Z,6.39
2022-11-28T02:14:56.803Z,6.12
2022-11-28T02:17:36.880Z,6.19
2022-11-28T02:20:40.246Z,6.02
2022-11-28T02:23:12.665Z,6.17
2022-11-28T02:26:08.314Z,6.12
2022-11-28T02:29:10.743Z,6.18
2022-11-28T02:34:56.837Z,5.90
2022-11-28T02:37:31.204Z,5.98
2022-11-28T02:45:10.746Z,6.19
2022-11-28T02:47:43.148Z,6.04
2022-11-28T02:50:15.438Z,5.57
2022-11-28T02:52:49.200Z,4.74
2022-11-28T02:55:17.843Z,4.68
2022-11-28T02:57:48.779Z,5.36
2022-11-28T03:00:28.646Z,6.04
2022-11-28T03:03:11.010Z,6.37
2022-11-28T03:05:46.328Z,6.26
2022-11-28T03:08:32.796Z,6.26
2022-11-28T03:11:05.304Z,6.30
2022-11-28T03:13:39.298Z,6.35
2022-11-28T03:16:17.716Z,5.96
2022-11-28T03:18:55.690Z,5.77
2022-11-28T03:21:37.162Z,6.08
2022-11-28T03:24:12.510Z,5.83
2022-11-28T03:26:50.966Z,6.17
2022-11-28T03:29:24.322Z,5.69
2022-11-28T03:31:56.196Z,5.32
2022-11-28T03:34:30.665Z,5.53
2022-11-28T03:37:13.846Z,5.84
2022-11-28T03:39:48.649Z,5.01
2022-11-28T03:42:21.062Z,4.58
2022-11-28T03:44:54.493Z,4.57
2022-11-28T03:47:25.009Z,4.80
2022-11-28T03:49:58.013Z,4.72
2022-11-28T03:52:29.491Z,5.04
2022-11-28T03:55:05.034Z,5.01
2022-11-28T03:57:34.387Z,4.48
2022-11-28T04:00:06.202Z,4.40
2022-11-28T04:02:38.690Z,4.30
2022-11-28T04:05:16.247Z,4.49
2022-11-28T04:07:51.020Z,4.78
2022-11-28T04:10:23.324Z,4.89
2022-11-28T04:12:56.877Z,5.12
2022-11-28T04:15:34.234Z,5.21
2022-11-28T04:18:13.044Z,4.92
2022-11-28T04:20:48.161Z,5.48
2022-11-28T04:23:20.329Z,6.39
2022-11-28T04:25:52.926Z,6.10
2022-11-28T04:28:25.118Z,6.78
2022-11-28T04:30:56.524Z,6.79
2022-11-28T04:33:31.172Z,6.60
2022-11-28T04:36:00.267Z,6.63
2022-11-28T04:38:30.920Z,6.70
2022-11-28T04:41:05.002Z,6.24
2022-11-28T04:43:37.104Z,6.72
2022-11-28T04:46:09.380Z,6.81
2022-11-28T04:48:38.893Z,7.05
2022-11-28T04:51:15.294Z,7.17
2022-11-28T04:53:53.218Z,7.50
2022-11-28T04:56:26.842Z,7.40
2022-11-28T04:58:56.529Z,17.22
2022-11-28T05:01:32.677Z,11.68
2022-11-28T05:04:00.437Z,27.33
2022-11-28T05:06:30.544Z,17.83
2022-11-28T05:08:59.728Z,12.98
2022-11-28T05:11:29.720Z,9.57
2022-11-28T05:13:56.779Z,8.18
2022-11-28T05:16:24.918Z,7.69
2022-11-28T05:18:52.852Z,7.29
2022-11-28T05:21:20.129Z,6.75
2022-11-28T05:23:49.491Z,8.21
2022-11-28T05:26:20.391Z,7.03
2022-11-28T05:28:51.301Z,7.57
2022-11-28T05:31:22.585Z,7.31
2022-11-28T05:33:50.106Z,7.21
2022-11-28T05:36:18.640Z,7.02
2022-11-28T05:38:45.850Z,7.19
2022-11-28T05:41:26.759Z,7.61
2022-11-28T05:43:54.318Z,7.45
2022-11-28T05:46:21.729Z,7.03
2022-11-28T05:48:51.202Z,7.59
2022-11-28T05:51:20.386Z,7.71
2022-11-28T05:53:47.591Z,7.36
2022-11-28T05:56:21.121Z,7.13
2022-11-28T05:58:48.726Z,6.76
2022-11-28T06:01:19.213Z,6.69
2022-11-28T06:03:47.856Z,6.67
2022-11-28T06:06:18.945Z,6.35
2022-11-28T06:08:48.006Z,6.58
2022-11-28T06:11:19.498Z,6.33
2022-11-28T06:13:49.358Z,7.70
2022-11-28T06:16:19.698Z,6.37
2022-11-28T06:18:47.685Z,7.16
2022-11-28T06:21:15.393Z,7.06
2022-11-28T06:23:43.486Z,6.51
2022-11-28T06:26:13.672Z,6.64
2022-11-28T06:28:41.285Z,7.92
2022-11-28T06:31:12.098Z,8.21
2022-11-28T06:33:38.987Z,7.55
2022-11-28T06:36:15.436Z,6.79
2022-11-28T06:38:42.725Z,6.05
2022-11-28T06:41:12.254Z,5.67
2022-11-28T06:43:42.005Z,6.09
2022-11-28T06:46:16.235Z,7.25
2022-11-28T06:48:44.828Z,8.09
2022-11-28T06:51:15.809Z,7.40
2022-11-28T06:53:43.102Z,7.67
2022-11-28T06:56:13.110Z,7.58
2022-11-28T06:58:42.878Z,7.38
2022-11-28T07:01:14.646Z,6.81
2022-11-28T07:03:42.703Z,7.66
2022-11-28T07:06:14.032Z,9.31
2022-11-28T07:08:41.505Z,8.81
2022-11-28T07:11:11.268Z,8.71
2022-11-28T07:13:38.597Z,7.99
2022-11-28T07:16:11.863Z,7.79
2022-11-28T07:18:41.039Z,7.57
2022-11-28T07:21:09.835Z,7.53
2022-11-28T07:23:38.071Z,6.89
2022-11-28T07:26:08.143Z,8.32
2022-11-28T07:28:36.919Z,7.86
2022-11-28T07:31:06.300Z,7.99
2022-11-28T07:33:34.552Z,7.50
2022-11-28T07:36:04.945Z,7.72
2022-11-28T07:38:33.431Z,7.37
2022-11-28T07:41:04.738Z,8.02
2022-11-28T07:43:31.911Z,7.82
2022-11-28T07:46:01.288Z,7.68
2022-11-28T07:48:29.806Z,7.35
2022-11-28T07:50:56.666Z,7.77
2022-11-28T07:53:25.206Z,7.60
2022-11-28T07:55:52.116Z,7.93
2022-11-28T07:58:22.095Z,7.40
2022-11-28T08:00:48.855Z,7.66
2022-11-28T08:03:18.971Z,7.47
2022-11-28T08:05:45.687Z,7.59
2022-11-28T08:08:12.536Z,7.58
2022-11-28T08:10:40.708Z,7.55
2022-11-28T08:13:09.031Z,7.81
2022-11-28T08:15:37.345Z,7.52
2022-11-28T08:18:08.651Z,7.57
2022-11-28T08:20:36.668Z,7.60
2022-11-28T08:23:09.557Z,7.42
2022-11-28T08:25:37.740Z,7.29
2022-11-28T08:28:08.968Z,7.85
2022-11-28T08:30:37.290Z,8.49
2022-11-28T08:33:06.550Z,8.48
2022-11-28T08:35:33.673Z,7.50
2022-11-28T08:38:02.051Z,7.65
2022-11-28T08:40:31.773Z,7.25
2022-11-28T08:42:58.986Z,7.51
2022-11-28T08:45:29.794Z,7.81
2022-11-28T08:47:58.919Z,7.07
2022-11-28T08:50:28.030Z,7.80
2022-11-28T08:52:55.175Z,7.18
2022-11-28T08:55:31.737Z,7.33
2022-11-28T08:57:59.441Z,7.76
2022-11-28T09:00:26.304Z,7.48
2022-11-28T09:02:56.645Z,7.23
2022-11-28T09:05:25.614Z,6.99
2022-11-28T09:07:54.672Z,7.20
2022-11-28T09:10:23.622Z,6.99
2022-11-28T09:12:52.183Z,7.51
2022-11-28T09:15:19.295Z,7.14
2022-11-28T09:17:46.445Z,6.98
2022-11-28T09:20:14.641Z,6.74
2022-11-28T09:22:41.634Z,6.74
2022-11-28T09:25:10.393Z,7.20
2022-11-28T09:27:40.065Z,6.98
2022-11-28T09:30:08.358Z,7.67
2022-11-28T09:32:37.929Z,7.46
2022-11-28T09:35:06.380Z,7.33
2022-11-28T09:37:36.277Z,7.02
2022-11-28T09:40:13.304Z,6.65
2022-11-28T09:42:47.818Z,6.38
2022-11-28T09:45:17.283Z,5.93
2022-11-28T09:47:49.039Z,6.08
2022-11-28T09:50:22.591Z,5.93
2022-11-28T09:52:59.560Z,5.47
2022-11-28T09:55:35.424Z,5.06
2022-11-28T09:58:14.119Z,5.09
2022-11-28T10:00:49.332Z,5.54
2022-11-28T10:03:36.279Z,5.79
2022-11-28T10:06:15.292Z,5.59
2022-11-28T10:08:55.490Z,5.61
2022-11-28T10:11:34.753Z,5.93
2022-11-28T10:14:13.958Z,5.67
2022-11-28T10:16:52.703Z,5.13
2022-11-28T10:19:52.920Z,5.18
2022-11-28T10:22:17.974Z,5.31
2022-11-28T10:24:50.165Z,5.25
2022-11-28T10:27:26.616Z,5.13
2022-11-28T10:30:01.927Z,5.61
2022-11-28T10:32:40.944Z,5.43
2022-11-28T10:35:14.748Z,5.79
2022-11-28T10:37:44.459Z,5.86
2022-11-28T10:40:24.992Z,5.31
2022-11-28T10:42:59.962Z,5.73
2022-11-28T10:45:34.047Z,5.26
2022-11-28T10:48:43.520Z,4.87
2022-11-28T10:51:25.027Z,4.76
2022-11-28T10:54:03.033Z,4.91
2022-11-28T10:56:40.566Z,4.99
2022-11-28T10:59:19.244Z,5.27
2022-11-28T11:01:50.324Z,5.71
2022-11-28T11:04:21.073Z,5.58
2022-11-28T11:07:09.438Z,5.91
2022-11-28T11:09:41.683Z,6.26
2022-11-28T11:12:21.531Z,6.39
2022-11-28T11:14:48.422Z,5.35
2022-11-28T11:17:32.635Z,5.82
2022-11-28T11:20:30.695Z,5.86
2022-11-28T11:22:59.856Z,7.17
2022-11-28T11:25:30.625Z,8.25
2022-11-28T11:28:03.515Z,8.73
2022-11-28T11:30:34.269Z,8.24
2022-11-28T11:33:07.145Z,7.54
2022-11-28T11:35:38.973Z,7.23
2022-11-28T11:38:18.545Z,6.93
2022-11-28T11:40:46.150Z,6.68
2022-11-28T11:43:39.876Z,6.25
2022-11-28T11:46:09.325Z,6.03
2022-11-28T11:48:38.659Z,6.07
2022-11-28T11:51:06.747Z,5.77
2022-11-28T11:53:34.794Z,5.94
2022-11-28T11:56:04.129Z,6.06
2022-11-28T11:58:43.917Z,5.61
2022-11-28T12:01:14.045Z,5.82
2022-11-28T12:03:50.502Z,6.29
2022-11-28T12:06:24.345Z,6.69
2022-11-28T12:08:54.513Z,6.64
2022-11-28T12:11:26.463Z,6.02
2022-11-28T12:13:57.030Z,5.70
2022-11-28T12:16:44.284Z,5.55
2022-11-28T12:19:26.689Z,5.80
2022-11-28T12:22:12.188Z,5.94
2022-11-28T12:24:52.384Z,5.69
2022-11-28T12:27:34.296Z,5.39
2022-11-28T12:30:23.073Z,5.68
2022-11-28T12:33:05.086Z,5.43
2022-11-28T12:35:39.665Z,4.73
2022-11-28T12:38:23.557Z,5.17
2022-11-28T12:41:12.469Z,5.01
2022-11-28T12:43:56.828Z,5.33
2022-11-28T12:46:34.169Z,5.34
2022-11-28T12:49:13.428Z,5.43
2022-11-28T12:51:53.255Z,5.42
2022-11-28T12:54:37.176Z,5.67
2022-11-28T12:57:10.927Z,5.24
2022-11-28T12:59:49.330Z,5.70
2022-11-28T13:02:32.292Z,5.81
2022-11-28T13:05:22.347Z,5.89
2022-11-28T13:08:11.698Z,5.42
2022-11-28T13:10:46.219Z,5.50
2022-11-28T13:13:20.057Z,5.17
2022-11-28T13:15:58.284Z,5.52
2022-11-28T13:18:48.316Z,6.28
2022-11-28T13:21:27.975Z,6.49
2022-11-28T13:24:06.839Z,6.06
2022-11-28T13:26:46.216Z,5.95
2022-11-28T13:29:24.173Z,6.36
2022-11-28T13:32:02.755Z,5.90
2022-11-28T13:34:36.348Z,5.84
2022-11-28T13:40:08.094Z,6.26
2022-11-28T13:45:32.721Z,5.94
2022-11-28T13:48:03.268Z,6.09
2022-11-28T13:51:01.354Z,6.40
2022-11-28T13:53:29.348Z,5.85
2022-11-28T13:56:22.890Z,6.05
2022-11-28T13:58:55.142Z,6.64
2022-11-28T14:01:25.008Z,6.63
2022-11-28T14:04:09.882Z,6.40
2022-11-28T14:06:52.272Z,6.53
2022-11-28T14:09:40.674Z,6.39
2022-11-28T14:12:52.245Z,6.60
2022-11-28T14:15:35.311Z,6.50
2022-11-28T14:18:57.315Z,5.96
2022-11-28T14:22:17.863Z,6.25
2022-11-28T14:25:21.021Z,8.06
2022-11-28T14:28:11.946Z,7.80
2022-11-28T14:31:27.014Z,7.59
2022-11-28T14:34:02.770Z,7.64
2022-11-28T14:36:40.807Z,7.35
2022-11-28T14:39:58.004Z,6.91
2022-11-28T14:43:11.803Z,6.92
2022-11-28T14:45:56.672Z,6.61
2022-11-28T14:48:53.145Z,6.87
2022-11-28T14:52:38.319Z,6.94
2022-11-28T14:55:31.646Z,7.71
2022-11-28T14:58:18.029Z,7.37
2022-11-28T15:01:18.742Z,7.79
2022-11-28T15:07:20.242Z,10.35
2022-11-28T15:10:36.946Z,16.38
2022-11-28T15:13:27.648Z,15.07
2022-11-28T15:16:05.628Z,13.25
2022-11-28T15:18:48.041Z,11.64
2022-11-28T15:24:22.090Z,9.85
2022-11-28T15:27:24.352Z,9.65
2022-11-28T15:29:59.321Z,9.03
2022-11-28T15:32:34.616Z,9.49
2022-11-28T15:35:11.074Z,9.29
2022-11-28T15:37:47.609Z,8.58
2022-11-28T15:40:24.144Z,8.03
2022-11-28T15:42:56.072Z,8.62
2022-11-28T15:45:27.008Z,8.99
2022-11-28T15:47:55.802Z,9.67
2022-11-28T15:50:24.530Z,8.47
2022-11-28T15:52:59.389Z,7.85
2022-11-28T15:55:29.139Z,7.97
2022-11-28T15:58:11.229Z,8.48
2022-11-28T16:00:41.546Z,8.47
2022-11-28T16:03:15.948Z,8.34
2022-11-28T16:05:43.305Z,8.49
2022-11-28T16:08:26.615Z,9.20
2022-11-28T16:10:53.641Z,9.08
2022-11-28T16:13:23.601Z,7.88
2022-11-28T16:15:55.315Z,7.27
2022-11-28T16:18:28.114Z,7.19
2022-11-28T16:21:00.073Z,7.24
2022-11-28T16:23:31.514Z,7.21
2022-11-28T16:26:00.743Z,7.46
2022-11-28T16:28:32.707Z,7.45
2022-11-28T16:31:02.526Z,9.03
2022-11-28T16:33:37.841Z,8.78
2022-11-28T16:36:09.661Z,8.73
2022-11-28T16:38:42.749Z,8.40
2022-11-28T16:41:15.818Z,8.20
2022-11-28T16:43:48.853Z,8.79
2022-11-28T16:46:22.493Z,8.32
2022-11-28T16:48:54.636Z,8.56
2022-11-28T16:51:36.746Z,8.63
2022-11-28T16:54:29.077Z,7.46
2022-11-28T16:57:14.178Z,7.97
2022-11-28T16:59:42.942Z,8.23
2022-11-28T17:02:17.404Z,8.48
2022-11-28T17:04:46.744Z,8.86
2022-11-28T17:07:15.997Z,8.88
2022-11-28T17:09:43.941Z,9.78
2022-11-28T17:12:17.654Z,10.05
2022-11-28T17:14:47.191Z,9.16
2022-11-28T17:17:17.775Z,9.05
2022-11-28T17:19:46.230Z,8.89
2022-11-28T17:22:16.247Z,8.62
2022-11-28T17:24:44.601Z,8.39
2022-11-28T17:27:12.907Z,8.39
2022-11-28T17:29:40.343Z,8.81
2022-11-28T17:32:11.913Z,8.24
2022-11-28T17:34:40.645Z,7.92
2022-11-28T17:37:18.487Z,8.03
2022-11-28T17:47:03.852Z,6.88
2022-11-28T17:49:31.202Z,6.38
2022-11-28T17:51:59.651Z,6.59
2022-11-28T17:54:27.139Z,6.13
2022-11-28T17:56:55.366Z,5.98
2022-11-28T17:59:24.510Z,5.17
2022-11-28T18:01:51.760Z,4.82
2022-11-28T18:04:19.095Z,4.34
2022-11-28T18:06:47.650Z,4.64
2022-11-28T18:09:15.872Z,6.58
2022-11-28T18:11:45.616Z,8.53
2022-11-28T18:14:12.948Z,9.14
2022-11-28T18:16:40.017Z,10.11
2022-11-28T18:19:07.000Z,11.49
2022-11-28T18:21:34.823Z,12.34
2022-11-28T18:24:01.666Z,12.06
2022-11-28T18:26:29.795Z,11.90
2022-11-28T18:29:01.740Z,11.72
2022-11-28T18:31:30.120Z,11.55
2022-11-28T18:34:02.446Z,10.56
2022-11-28T18:36:30.842Z,9.77
2022-11-28T18:39:01.107Z,9.96
2022-11-28T18:41:29.949Z,10.11
2022-11-28T18:43:57.804Z,10.11
2022-11-28T18:46:25.483Z,10.61
2022-11-28T18:48:54.247Z,10.50
2022-11-28T18:51:24.173Z,10.98
2022-11-28T18:53:56.385Z,11.33
2022-11-28T18:56:24.589Z,10.77
2022-11-28T18:58:59.743Z,10.06
2022-11-28T19:01:28.072Z,10.32
2022-11-28T19:04:02.742Z,10.46
2022-11-28T19:06:30.482Z,9.22
2022-11-28T19:09:00.329Z,9.37
2022-11-28T19:11:27.917Z,9.87
2022-11-28T19:13:58.390Z,9.67
2022-11-28T19:16:30.528Z,9.72
2022-11-28T19:18:59.353Z,8.59
2022-11-28T19:21:28.177Z,8.59
2022-11-28T19:26:31.410Z,8.32
2022-11-28T19:29:00.047Z,8.12
2022-11-28T19:31:28.760Z,8.52
2022-11-28T19:34:01.746Z,7.94
2022-11-28T19:36:32.010Z,7.96
2022-11-28T19:39:01.808Z,7.33
2022-11-28T19:41:29.437Z,7.65
2022-11-28T19:43:58.995Z,7.41
2022-11-28T19:46:31.900Z,6.90
2022-11-28T19:49:05.363Z,6.93
2022-11-28T19:51:32.929Z,7.88
2022-11-28T19:54:03.478Z,8.17
2022-11-28T19:56:31.429Z,8.73
2022-11-28T19:59:00.667Z,8.38
2022-11-28T20:01:30.858Z,7.82
2022-11-28T20:04:00.169Z,7.34
2022-11-28T20:06:30.059Z,7.60
2022-11-28T20:09:00.588Z,7.91
2022-11-28T20:11:30.378Z,7.61
2022-11-28T20:14:02.094Z,8.56
2022-11-28T20:16:31.711Z,8.25
2022-11-28T20:18:59.212Z,8.66
2022-11-28T20:21:26.379Z,9.14
2022-11-28T20:23:56.378Z,9.16
2022-11-28T20:26:24.904Z,9.15
2022-11-28T20:28:51.850Z,10.49
2022-11-28T20:31:24.924Z,10.54
2022-11-28T20:33:53.629Z,10.65
2022-11-28T20:36:24.601Z,10.73
2022-11-28T20:38:53.366Z,10.36
2022-11-28T20:41:22.185Z,10.88
2022-11-28T20:43:52.791Z,10.22
2022-11-28T20:46:23.106Z,10.07
2022-11-28T20:48:52.981Z,10.61
2022-11-28T20:51:21.774Z,10.36
2022-11-28T20:53:50.912Z,9.94
2022-11-28T20:56:19.112Z,9.66
2022-11-28T20:58:47.249Z,8.98
2022-11-28T21:01:16.618Z,9.00
2022-11-28T21:03:46.256Z,9.67
2022-11-28T21:06:13.568Z,9.46
2022-11-28T21:08:40.763Z,9.16
2022-11-28T21:11:09.032Z,9.94
2022-11-28T21:13:36.012Z,10.01
2022-11-28T21:16:06.469Z,10.27
2022-11-28T21:18:33.995Z,9.84
2022-11-28T21:21:06.892Z,9.74
2022-11-28T21:23:33.807Z,9.20
2022-11-28T21:26:05.450Z,10.06
2022-11-28T21:28:36.716Z,10.00
2022-11-28T21:31:05.361Z,9.40
2022-11-28T21:33:34.730Z,9.83
2022-11-28T21:36:06.053Z,11.72
2022-11-28T21:38:33.532Z,11.36
2022-11-28T21:41:01.028Z,10.70
2022-11-28T21:43:28.848Z,10.74
2022-11-28T21:46:00.495Z,11.08
2022-11-28T21:48:30.154Z,11.47
2022-11-28T21:50:58.173Z,11.89
2022-11-28T21:53:28.058Z,11.28
2022-11-28T21:55:55.557Z,11.48
2022-11-28T21:58:26.692Z,12.14
2022-11-28T22:00:57.693Z,12.64
2022-11-28T22:03:24.951Z,12.72
2022-11-28T22:05:52.142Z,12.44
2022-11-28T22:08:20.404Z,11.86
2022-11-28T22:10:51.486Z,11.99
2022-11-28T22:13:20.133Z,11.93
2022-11-28T22:15:48.227Z,13.02
2022-11-28T22:18:15.283Z,12.44
2022-11-28T22:20:44.974Z,12.46
2022-11-28T22:23:14.804Z,12.75
2022-11-28T22:25:51.501Z,13.61
2022-11-28T22:28:20.939Z,12.96
2022-11-28T22:30:48.816Z,13.19
2022-11-28T22:33:19.269Z,14.37
2022-11-28T22:35:45.990Z,15.34
2022-11-28T22:38:13.199Z,16.07
2022-11-28T22:40:40.203Z,15.50
2022-11-28T22:43:09.706Z,14.26
2022-11-28T22:45:36.737Z,14.72
2022-11-28T22:48:03.890Z,14.64
2022-11-28T22:50:37.335Z,15.02
2022-11-28T22:53:07.588Z,14.65
2022-11-28T22:55:36.124Z,14.35
2022-11-28T22:58:02.977Z,14.72
2022-11-28T23:00:34.799Z,14.14
2022-11-28T23:03:01.877Z,13.60
2022-11-28T23:05:28.797Z,14.01
2022-11-28T23:07:55.726Z,14.07
2022-11-28T23:10:22.673Z,14.18
2022-11-28T23:12:49.438Z,15.01
2022-11-28T23:15:17.983Z,15.00
2022-11-28T23:17:46.177Z,15.02
2022-11-28T23:20:15.786Z,15.71
2022-11-28T23:22:42.522Z,15.46
2022-11-28T23:25:11.813Z,15.70
2022-11-28T23:27:38.570Z,14.76
2022-11-28T23:30:07.203Z,14.76
2022-11-28T23:32:34.197Z,14.96
2022-11-28T23:35:02.663Z,14.91
2022-11-28T23:37:30.862Z,15.04
2022-11-28T23:39:59.100Z,14.77
2022-11-28T23:42:25.841Z,15.06
2022-11-28T23:44:52.776Z,14.09
2022-11-28T23:47:19.701Z,14.27
2022-11-28T23:49:46.709Z,14.77
2022-11-28T23:52:15.983Z,15.24
2022-11-28T23:54:43.177Z,15.59
2022-11-28T23:57:12.601Z,14.36
2022-11-28T23:59:39.537Z,14.63
